sensor_id;sensor_type;location;lat;lon;timestamp;pressure;altitude;pressure_sealevel;temperature;humidity
44148;BME280;29810;55.848;37.368;2022-09-03T00:00:36;99568.06;;;5.63;87.30
44148;BME280;29810;55.848;37.368;2022-09-03T00:03:50;99579.31;;;5.59;87.47
44148;BME280;29810;55.848;37.368;2022-09-03T00:07:00;99582.78;;;5.54;87.79
44148;BME280;29810;55.848;37.368;2022-09-03T00:10:08;99586.25;;;5.56;87.79
44148;BME280;29810;55.848;37.368;2022-09-03T00:13:19;99590.56;;;5.52;87.82
44148;BME280;29810;55.848;37.368;2022-09-03T00:16:27;99602.66;;;5.52;88.02
44148;BME280;29810;55.848;37.368;2022-09-03T00:19:32;99606.13;;;5.51;87.98
44148;BME280;29810;55.848;37.368;2022-09-03T00:22:46;99602.59;;;5.56;88.58
44148;BME280;29810;55.848;37.368;2022-09-03T00:25:54;99603.53;;;5.51;88.34
44148;BME280;29810;55.848;37.368;2022-09-03T00:29:10;99611.31;;;5.46;88.36
44148;BME280;29810;55.848;37.368;2022-09-03T00:32:26;99609.63;;;5.45;88.78
44148;BME280;29810;55.848;37.368;2022-09-03T00:35:46;99610.47;;;5.47;89.09
44148;BME280;29810;55.848;37.368;2022-09-03T00:38:50;99615.66;;;5.44;89.43
44148;BME280;29810;55.848;37.368;2022-09-03T00:46:22;99621.75;;;5.40;89.61
44148;BME280;29810;55.848;37.368;2022-09-03T00:59:09;99644.13;;;5.44;90.34
44148;BME280;29810;55.848;37.368;2022-09-03T01:02:23;99644.13;;;5.42;89.84
44148;BME280;29810;55.848;37.368;2022-09-03T01:09:33;99646.00;;;5.28;89.75
44148;BME280;29810;55.848;37.368;2022-09-03T01:15:24;99652.03;;;5.25;90.17
44148;BME280;29810;55.848;37.368;2022-09-03T01:18:47;99644.31;;;5.21;90.11
44148;BME280;29810;55.848;37.368;2022-09-03T01:28:55;99647.78;;;5.13;90.82
44148;BME280;29810;55.848;37.368;2022-09-03T01:32:09;99649.56;;;5.07;90.93
44148;BME280;29810;55.848;37.368;2022-09-03T01:38:36;99657.37;;;4.99;91.07
44148;BME280;29810;55.848;37.368;2022-09-03T01:42:04;99654.81;;;5.01;91.62
44148;BME280;29810;55.848;37.368;2022-09-03T01:45:30;99660.81;;;5.01;91.80
44148;BME280;29810;55.848;37.368;2022-09-03T01:51:42;99671.22;;;4.92;91.84
44148;BME280;29810;55.848;37.368;2022-09-03T01:55:12;99670.38;;;4.90;91.80
44148;BME280;29810;55.848;37.368;2022-09-03T02:01:26;99680.66;;;4.97;91.84
44148;BME280;29810;55.848;37.368;2022-09-03T02:04:30;99691.00;;;4.96;92.09
44148;BME280;29810;55.848;37.368;2022-09-03T02:07:35;99693.63;;;4.93;92.14
44148;BME280;29810;55.848;37.368;2022-09-03T02:10:44;99695.34;;;4.89;92.13
44148;BME280;29810;55.848;37.368;2022-09-03T02:13:50;99708.25;;;4.92;92.33
44148;BME280;29810;55.848;37.368;2022-09-03T02:16:55;99706.53;;;4.91;92.33
44148;BME280;29810;55.848;37.368;2022-09-03T02:20:06;99709.97;;;4.93;92.26
44148;BME280;29810;55.848;37.368;2022-09-03T02:23:09;99703.97;;;4.93;92.29
44148;BME280;29810;55.848;37.368;2022-09-03T02:26:15;99716.88;;;4.90;92.08
44148;BME280;29810;55.848;37.368;2022-09-03T02:29:18;99712.59;;;4.89;92.23
44148;BME280;29810;55.848;37.368;2022-09-03T02:32:20;99712.59;;;4.89;92.32
44148;BME280;29810;55.848;37.368;2022-09-03T02:35:23;99715.16;;;4.90;92.32
44148;BME280;29810;55.848;37.368;2022-09-03T02:38:25;99717.75;;;4.90;92.36
44148;BME280;29810;55.848;37.368;2022-09-03T02:41:27;99707.44;;;4.84;92.31
44148;BME280;29810;55.848;37.368;2022-09-03T02:44:30;99702.28;;;4.83;92.20
44148;BME280;29810;55.848;37.368;2022-09-03T02:47:34;99716.03;;;4.89;92.18
44148;BME280;29810;55.848;37.368;2022-09-03T02:50:41;99722.03;;;4.90;91.98
44148;BME280;29810;55.848;37.368;2022-09-03T02:53:42;99721.16;;;4.94;92.14
44148;BME280;29810;55.848;37.368;2022-09-03T02:56:44;99723.69;;;5.02;92.05
44148;BME280;29810;55.848;37.368;2022-09-03T02:59:49;99725.44;;;5.00;91.88
44148;BME280;29810;55.848;37.368;2022-09-03T03:02:56;99726.31;;;4.97;91.58
44148;BME280;29810;55.848;37.368;2022-09-03T03:06:00;99728.91;;;4.98;91.40
44148;BME280;29810;55.848;37.368;2022-09-03T03:09:06;99722.00;;;5.01;91.46
44148;BME280;29810;55.848;37.368;2022-09-03T03:12:08;99720.22;;;5.04;91.29
44148;BME280;29810;55.848;37.368;2022-09-03T03:15:11;99732.25;;;5.13;91.08
44148;BME280;29810;55.848;37.368;2022-09-03T03:18:12;99734.84;;;5.13;90.80
44148;BME280;29810;55.848;37.368;2022-09-03T03:21:16;99733.16;;;5.07;90.62
44148;BME280;29810;55.848;37.368;2022-09-03T03:24:17;99737.41;;;5.18;90.63
44148;BME280;29810;55.848;37.368;2022-09-03T03:27:19;99737.41;;;5.13;90.41
44148;BME280;29810;55.848;37.368;2022-09-03T03:30:21;99751.22;;;5.15;90.35
44148;BME280;29810;55.848;37.368;2022-09-03T03:33:23;99732.28;;;5.10;90.34
44148;BME280;29810;55.848;37.368;2022-09-03T03:36:27;99756.31;;;5.26;90.12
44148;BME280;29810;55.848;37.368;2022-09-03T03:39:29;99758.00;;;5.30;89.84
44148;BME280;29810;55.848;37.368;2022-09-03T03:42:32;99743.44;;;5.17;89.35
44148;BME280;29810;55.848;37.368;2022-09-03T03:45:34;99761.47;;;5.27;89.73
44148;BME280;29810;55.848;37.368;2022-09-03T03:48:37;99732.22;;;5.19;89.48
44148;BME280;29810;55.848;37.368;2022-09-03T03:51:39;99721.06;;;5.14;89.32
44148;BME280;29810;55.848;37.368;2022-09-03T03:54:40;99751.06;;;5.35;89.17
44148;BME280;29810;55.848;37.368;2022-09-03T03:57:42;99763.03;;;5.52;89.14
44148;BME280;29810;55.848;37.368;2022-09-03T04:00:43;99763.78;;;5.64;88.85
44148;BME280;29810;55.848;37.368;2022-09-03T04:03:46;99767.94;;;5.84;88.25
44148;BME280;29810;55.848;37.368;2022-09-03T04:06:48;99774.63;;;6.10;87.96
44148;BME280;29810;55.848;37.368;2022-09-03T04:09:52;99754.41;;;6.43;86.70
44148;BME280;29810;55.848;37.368;2022-09-03T04:12:54;99770.59;;;6.63;85.41
44148;BME280;29810;55.848;37.368;2022-09-03T04:16:04;99769.72;;;6.65;84.83
44148;BME280;29810;55.848;37.368;2022-09-03T04:19:06;99771.16;;;6.90;83.91
44148;BME280;29810;55.848;37.368;2022-09-03T04:22:07;99776.56;;;7.36;82.98
44148;BME280;29810;55.848;37.368;2022-09-03T04:25:09;99781.81;;;7.87;80.92
44148;BME280;29810;55.848;37.368;2022-09-03T04:28:11;99780.78;;;7.98;78.27
44148;BME280;29810;55.848;37.368;2022-09-03T04:31:15;99787.63;;;8.02;77.99
44148;BME280;29810;55.848;37.368;2022-09-03T04:34:18;99781.47;;;8.07;77.56
44148;BME280;29810;55.848;37.368;2022-09-03T04:37:19;99778.88;;;8.56;75.92
44148;BME280;29810;55.848;37.368;2022-09-03T04:40:21;99778.72;;;8.64;75.18
44148;BME280;29810;55.848;37.368;2022-09-03T04:43:22;99765.50;;;10.23;71.43
44148;BME280;29810;55.848;37.368;2022-09-03T04:46:26;99760.13;;;12.53;62.15
44148;BME280;29810;55.848;37.368;2022-09-03T04:49:33;99772.19;;;11.80;61.68
44148;BME280;29810;55.848;37.368;2022-09-03T04:52:35;99761.25;;;13.17;59.22
44148;BME280;29810;55.848;37.368;2022-09-03T04:55:37;99752.38;;;14.28;54.67
44148;BME280;29810;55.848;37.368;2022-09-03T04:58:39;99753.66;;;15.35;51.75
44148;BME280;29810;55.848;37.368;2022-09-03T05:01:42;99747.38;;;17.10;47.43
44148;BME280;29810;55.848;37.368;2022-09-03T05:04:44;99747.88;;;19.10;41.43
44148;BME280;29810;55.848;37.368;2022-09-03T05:07:47;99747.25;;;18.34;41.36
44148;BME280;29810;55.848;37.368;2022-09-03T05:10:48;99757.16;;;15.89;47.53
44148;BME280;29810;55.848;37.368;2022-09-03T05:13:51;99773.31;;;13.66;53.23
44148;BME280;29810;55.848;37.368;2022-09-03T05:16:54;99775.19;;;12.21;57.24
44148;BME280;29810;55.848;37.368;2022-09-03T05:19:55;99773.13;;;11.22;60.90
44148;BME280;29810;55.848;37.368;2022-09-03T05:23:02;99787.28;;;10.21;63.69
44148;BME280;29810;55.848;37.368;2022-09-03T05:26:09;99789.22;;;9.78;66.56
44148;BME280;29810;55.848;37.368;2022-09-03T05:29:11;99797.47;;;9.59;67.63
44148;BME280;29810;55.848;37.368;2022-09-03T05:32:13;99794.31;;;9.47;68.21
44148;BME280;29810;55.848;37.368;2022-09-03T05:35:17;99799.94;;;9.26;69.12
44148;BME280;29810;55.848;37.368;2022-09-03T05:38:18;99802.31;;;8.98;70.33
44148;BME280;29810;55.848;37.368;2022-09-03T05:41:21;99795.34;;;8.99;70.97
44148;BME280;29810;55.848;37.368;2022-09-03T05:44:23;99793.13;;;8.80;71.45
44148;BME280;29810;55.848;37.368;2022-09-03T05:47:24;99801.16;;;8.69;72.19
44148;BME280;29810;55.848;37.368;2022-09-03T05:50:26;99782.13;;;8.67;72.16
44148;BME280;29810;55.848;37.368;2022-09-03T05:53:28;99802.50;;;8.87;72.25
44148;BME280;29810;55.848;37.368;2022-09-03T05:56:31;99802.53;;;8.86;72.10
44148;BME280;29810;55.848;37.368;2022-09-03T05:59:33;99812.03;;;8.88;72.45
44148;BME280;29810;55.848;37.368;2022-09-03T06:02:35;99801.22;;;9.07;72.32
44148;BME280;29810;55.848;37.368;2022-09-03T06:05:37;99808.25;;;9.03;71.94
44148;BME280;29810;55.848;37.368;2022-09-03T06:08:39;99817.44;;;9.21;72.13
44148;BME280;29810;55.848;37.368;2022-09-03T06:11:42;99821.38;;;9.38;71.63
44148;BME280;29810;55.848;37.368;2022-09-03T06:14:43;99820.06;;;9.57;71.26
44148;BME280;29810;55.848;37.368;2022-09-03T06:17:45;99825.63;;;9.80;70.67
44148;BME280;29810;55.848;37.368;2022-09-03T06:20:56;99804.72;;;9.84;70.00
44148;BME280;29810;55.848;37.368;2022-09-03T06:23:58;99819.78;;;10.06;69.54
44148;BME280;29810;55.848;37.368;2022-09-03T06:26:59;99821.41;;;10.10;68.98
44148;BME280;29810;55.848;37.368;2022-09-03T06:30:01;99827.03;;;9.94;69.14
44148;BME280;29810;55.848;37.368;2022-09-03T06:33:04;99815.88;;;10.24;69.06
44148;BME280;29810;55.848;37.368;2022-09-03T06:36:08;99805.88;;;10.41;68.35
44148;BME280;29810;55.848;37.368;2022-09-03T06:39:10;99816.34;;;10.40;67.37
44148;BME280;29810;55.848;37.368;2022-09-03T06:42:12;99823.28;;;10.41;67.00
44148;BME280;29810;55.848;37.368;2022-09-03T06:45:16;99818.16;;;10.38;67.12
44148;BME280;29810;55.848;37.368;2022-09-03T06:48:18;99813.94;;;10.31;67.13
44148;BME280;29810;55.848;37.368;2022-09-03T06:51:22;99824.09;;;10.43;67.40
44148;BME280;29810;55.848;37.368;2022-09-03T06:54:24;99825.56;;;10.53;66.65
44148;BME280;29810;55.848;37.368;2022-09-03T06:57:26;99830.69;;;10.56;66.29
44148;BME280;29810;55.848;37.368;2022-09-03T07:00:28;99828.38;;;10.44;66.06
44148;BME280;29810;55.848;37.368;2022-09-03T07:03:29;99830.94;;;10.47;65.94
44148;BME280;29810;55.848;37.368;2022-09-03T07:06:36;99838.88;;;10.42;65.45
44148;BME280;29810;55.848;37.368;2022-09-03T07:09:39;99839.78;;;10.40;65.57
44148;BME280;29810;55.848;37.368;2022-09-03T07:12:40;99839.78;;;10.40;65.21
44148;BME280;29810;55.848;37.368;2022-09-03T07:15:41;99781.34;;;10.16;65.05
44148;BME280;29810;55.848;37.368;2022-09-03T07:18:44;99789.56;;;10.33;64.57
44148;BME280;29810;55.848;37.368;2022-09-03T07:21:46;99826.50;;;10.82;64.28
44148;BME280;29810;55.848;37.368;2022-09-03T07:24:47;99836.97;;;11.12;63.84
44148;BME280;29810;55.848;37.368;2022-09-03T07:27:52;99831.09;;;11.04;62.55
44148;BME280;29810;55.848;37.368;2022-09-03T07:30:59;99826.25;;;11.21;62.53
44148;BME280;29810;55.848;37.368;2022-09-03T07:34:04;99838.59;;;11.44;61.83
44148;BME280;29810;55.848;37.368;2022-09-03T07:37:06;99849.09;;;11.43;62.10
44148;BME280;29810;55.848;37.368;2022-09-03T07:40:09;99842.06;;;11.45;62.44
44148;BME280;29810;55.848;37.368;2022-09-03T07:43:12;99848.72;;;11.55;61.44
44148;BME280;29810;55.848;37.368;2022-09-03T07:46:15;99835.59;;;11.85;61.20
44148;BME280;29810;55.848;37.368;2022-09-03T07:49:23;99851.16;;;12.17;60.37
44148;BME280;29810;55.848;37.368;2022-09-03T07:52:25;99849.16;;;12.25;59.99
44148;BME280;29810;55.848;37.368;2022-09-03T07:55:26;99839.50;;;12.00;59.92
44148;BME280;29810;55.848;37.368;2022-09-03T07:58:29;99830.16;;;11.65;60.99
44148;BME280;29810;55.848;37.368;2022-09-03T08:01:32;99833.13;;;11.81;61.02
44148;BME280;29810;55.848;37.368;2022-09-03T08:04:34;99833.66;;;12.19;59.79
44148;BME280;29810;55.848;37.368;2022-09-03T08:07:36;99845.19;;;12.38;58.51
44148;BME280;29810;55.848;37.368;2022-09-03T08:10:38;99828.13;;;12.53;57.19
44148;BME280;29810;55.848;37.368;2022-09-03T08:13:45;99823.84;;;13.00;57.09
44148;BME280;29810;55.848;37.368;2022-09-03T08:16:48;99824.75;;;13.68;54.90
44148;BME280;29810;55.848;37.368;2022-09-03T08:19:50;99798.91;;;13.37;54.35
44148;BME280;29810;55.848;37.368;2022-09-03T08:22:52;99819.91;;;13.57;54.55
44148;BME280;29810;55.848;37.368;2022-09-03T08:25:58;99827.69;;;13.61;54.01
44148;BME280;29810;55.848;37.368;2022-09-03T08:29:00;99828.34;;;13.44;52.46
44148;BME280;29810;55.848;37.368;2022-09-03T08:32:03;99819.22;;;13.76;52.27
44148;BME280;29810;55.848;37.368;2022-09-03T08:35:05;99797.22;;;13.79;50.23
44148;BME280;29810;55.848;37.368;2022-09-03T08:38:07;99807.31;;;13.89;49.64
44148;BME280;29810;55.848;37.368;2022-09-03T08:41:15;99799.47;;;14.10;49.11
44148;BME280;29810;55.848;37.368;2022-09-03T08:44:53;99814.53;;;14.05;48.57
44148;BME280;29810;55.848;37.368;2022-09-03T08:48:09;99815.19;;;14.10;48.89
44148;BME280;29810;55.848;37.368;2022-09-03T08:51:14;99813.22;;;14.56;47.87
44148;BME280;29810;55.848;37.368;2022-09-03T08:54:19;99799.19;;;14.78;46.38
44148;BME280;29810;55.848;37.368;2022-09-03T08:57:23;99806.72;;;15.24;45.16
44148;BME280;29810;55.848;37.368;2022-09-03T09:00:34;99795.97;;;15.29;45.36
44148;BME280;29810;55.848;37.368;2022-09-03T09:10:30;99795.84;;;15.32;45.02
44148;BME280;29810;55.848;37.368;2022-09-03T09:17:23;99792.34;;;15.68;43.63
44148;BME280;29810;55.848;37.368;2022-09-03T09:23:48;99812.25;;;15.18;42.43
44148;BME280;29810;55.848;37.368;2022-09-03T09:26:57;99813.94;;;15.00;43.37
44148;BME280;29810;55.848;37.368;2022-09-03T09:30:03;99765.59;;;14.45;43.61
44148;BME280;29810;55.848;37.368;2022-09-03T09:33:05;99797.53;;;14.76;42.57
44148;BME280;29810;55.848;37.368;2022-09-03T09:36:09;99790.50;;;14.76;43.07
44148;BME280;29810;55.848;37.368;2022-09-03T09:39:12;99800.72;;;14.62;43.37
44148;BME280;29810;55.848;37.368;2022-09-03T09:42:20;99787.31;;;14.49;43.46
44148;BME280;29810;55.848;37.368;2022-09-03T09:45:23;99794.19;;;14.51;42.73
44148;BME280;29810;55.848;37.368;2022-09-03T09:48:29;99787.63;;;14.82;42.70
44148;BME280;29810;55.848;37.368;2022-09-03T09:51:34;99792.44;;;14.92;41.90
44148;BME280;29810;55.848;37.368;2022-09-03T09:54:36;99785.19;;;15.16;41.91
44148;BME280;29810;55.848;37.368;2022-09-03T09:57:38;99794.56;;;15.21;41.08
44148;BME280;29810;55.848;37.368;2022-09-03T10:00:40;99780.06;;;14.14;42.03
44148;BME280;29810;55.848;37.368;2022-09-03T10:03:58;99787.09;;;13.71;42.74
44148;BME280;29810;55.848;37.368;2022-09-03T10:10:20;99788.16;;;13.87;42.82
44148;BME280;29810;55.848;37.368;2022-09-03T10:13:33;99779.19;;;13.04;44.88
44148;BME280;29810;55.848;37.368;2022-09-03T10:16:39;99785.09;;;13.09;45.89
44148;BME280;29810;55.848;37.368;2022-09-03T10:23:36;99779.84;;;13.55;44.82
44148;BME280;29810;55.848;37.368;2022-09-03T10:26:42;99795.50;;;13.79;44.48
44148;BME280;29810;55.848;37.368;2022-09-03T10:29:47;99780.16;;;14.11;43.96
44148;BME280;29810;55.848;37.368;2022-09-03T10:33:34;99783.38;;;14.38;43.52
44148;BME280;29810;55.848;37.368;2022-09-03T10:40:37;99781.28;;;14.86;42.07
44148;BME280;29810;55.848;37.368;2022-09-03T10:43:54;99774.03;;;14.72;42.17
44148;BME280;29810;55.848;37.368;2022-09-03T11:01:36;99778.81;;;14.83;42.75
44148;BME280;29810;55.848;37.368;2022-09-03T11:05:38;99784.12;;;14.82;42.62
44148;BME280;29810;55.848;37.368;2022-09-03T11:08:41;99782.16;;;15.06;42.80
44148;BME280;29810;55.848;37.368;2022-09-03T11:11:50;99801.38;;;15.06;42.15
44148;BME280;29810;55.848;37.368;2022-09-03T11:15:01;99792.44;;;14.92;42.02
44148;BME280;29810;55.848;37.368;2022-09-03T11:18:22;99799.88;;;14.82;42.66
44148;BME280;29810;55.848;37.368;2022-09-03T11:21:27;99810.16;;;14.86;43.68
44148;BME280;29810;55.848;37.368;2022-09-03T11:24:32;99803.50;;;14.58;44.96
44148;BME280;29810;55.848;37.368;2022-09-03T11:31:05;99787.31;;;15.07;44.88
44148;BME280;29810;55.848;37.368;2022-09-03T11:37:28;99779.53;;;15.25;44.39
44148;BME280;29810;55.848;37.368;2022-09-03T11:40:35;99773.41;;;15.24;44.64
44148;BME280;29810;55.848;37.368;2022-09-03T11:43:38;99784.91;;;15.41;44.81
44148;BME280;29810;55.848;37.368;2022-09-03T11:46:40;99778.72;;;15.04;44.17
44148;BME280;29810;55.848;37.368;2022-09-03T11:49:48;99775.81;;;14.51;44.56
44148;BME280;29810;55.848;37.368;2022-09-03T11:56:17;99774.22;;;14.88;44.19
44148;BME280;29810;55.848;37.368;2022-09-03T11:59:22;99766.59;;;15.01;43.99
44148;BME280;29810;55.848;37.368;2022-09-03T12:02:29;99769.31;;;14.81;43.60
44148;BME280;29810;55.848;37.368;2022-09-03T12:19:03;99747.09;;;14.69;43.69
44148;BME280;29810;55.848;37.368;2022-09-03T12:22:15;99743.69;;;14.67;44.23
44148;BME280;29810;55.848;37.368;2022-09-03T12:25:18;99742.16;;;14.61;44.22
44148;BME280;29810;55.848;37.368;2022-09-03T12:28:29;99740.16;;;14.47;44.39
44148;BME280;29810;55.848;37.368;2022-09-03T12:31:42;99741.87;;;14.48;43.87
44148;BME280;29810;55.848;37.368;2022-09-03T12:34:45;99734.66;;;14.33;44.30
44148;BME280;29810;55.848;37.368;2022-09-03T12:37:50;99729.94;;;14.41;44.22
44148;BME280;29810;55.848;37.368;2022-09-03T12:40:52;99719.31;;;14.63;44.08
44148;BME280;29810;55.848;37.368;2022-09-03T12:43:57;99720.06;;;14.67;44.08
44148;BME280;29810;55.848;37.368;2022-09-03T12:47:03;99715.03;;;14.81;43.88
44148;BME280;29810;55.848;37.368;2022-09-03T12:50:14;99721.78;;;14.68;42.98
44148;BME280;29810;55.848;37.368;2022-09-03T12:53:23;99693.66;;;14.70;42.97
44148;BME280;29810;55.848;37.368;2022-09-03T12:56:26;99706.88;;;14.87;43.14
44148;BME280;29810;55.848;37.368;2022-09-03T12:59:34;99704.34;;;14.86;43.13
44148;BME280;29810;55.848;37.368;2022-09-03T13:05:51;99702.84;;;15.17;43.06
44148;BME280;29810;55.848;37.368;2022-09-03T13:09:00;99703.72;;;15.17;42.72
44148;BME280;29810;55.848;37.368;2022-09-03T13:12:03;99698.56;;;15.33;42.58
44148;BME280;29810;55.848;37.368;2022-09-03T13:15:08;99696.41;;;15.42;42.58
44148;BME280;29810;55.848;37.368;2022-09-03T13:18:19;99694.78;;;15.39;42.44
44148;BME280;29810;55.848;37.368;2022-09-03T13:34:21;99701.59;;;15.06;43.72
44148;BME280;29810;55.848;37.368;2022-09-03T13:44:15;99693.59;;;15.10;44.69
44148;BME280;29810;55.848;37.368;2022-09-03T13:47:24;99690.81;;;15.13;43.49
44148;BME280;29810;55.848;37.368;2022-09-03T13:50:32;99688.50;;;15.24;43.30
44148;BME280;29810;55.848;37.368;2022-09-03T14:00:31;99686.06;;;15.38;43.04
44148;BME280;29810;55.848;37.368;2022-09-03T14:03:48;99690.25;;;15.06;43.90
44148;BME280;29810;55.848;37.368;2022-09-03T14:07:00;99681.34;;;14.72;44.44
44148;BME280;29810;55.848;37.368;2022-09-03T14:10:27;99678.00;;;14.49;44.52
44148;BME280;29810;55.848;37.368;2022-09-03T14:13:45;99674.69;;;14.25;44.79
44148;BME280;29810;55.848;37.368;2022-09-03T14:16:59;99659.84;;;14.05;45.40
44148;BME280;29810;55.848;37.368;2022-09-03T14:23:31;99659.81;;;14.45;44.61
44148;BME280;29810;55.848;37.368;2022-09-03T14:26:37;99669.12;;;14.52;44.41
44148;BME280;29810;55.848;37.368;2022-09-03T14:29:52;99657.31;;;14.22;44.80
44148;BME280;29810;55.848;37.368;2022-09-03T14:42:41;99666.44;;;14.14;45.68
44148;BME280;29810;55.848;37.368;2022-09-03T14:53:13;99663.59;;;14.77;45.30
44148;BME280;29810;55.848;37.368;2022-09-03T14:56:32;99651.16;;;15.00;44.46
44148;BME280;29810;55.848;37.368;2022-09-03T15:00:07;99654.88;;;14.57;45.35
44148;BME280;29810;55.848;37.368;2022-09-03T15:13:30;99652.66;;;13.69;47.60
44148;BME280;29810;55.848;37.368;2022-09-03T15:16:36;99644.66;;;13.72;47.44
44148;BME280;29810;55.848;37.368;2022-09-03T15:20:28;99648.47;;;13.44;48.12
44148;BME280;29810;55.848;37.368;2022-09-03T15:27:01;99641.41;;;13.46;48.80
44148;BME280;29810;55.848;37.368;2022-09-03T15:30:13;99640.78;;;13.39;48.82
44148;BME280;29810;55.848;37.368;2022-09-03T15:33:27;99641.88;;;13.34;48.91
44148;BME280;29810;55.848;37.368;2022-09-03T15:36:51;99639.19;;;13.35;49.09
44148;BME280;29810;55.848;37.368;2022-09-03T15:40:04;99640.59;;;13.44;49.31
44148;BME280;29810;55.848;37.368;2022-09-03T15:43:14;99637.72;;;13.50;49.15
44148;BME280;29810;55.848;37.368;2022-09-03T15:46:37;99644.53;;;13.54;49.16
44148;BME280;29810;55.848;37.368;2022-09-03T15:49:57;99639.88;;;13.61;49.12
44148;BME280;29810;55.848;37.368;2022-09-03T15:53:40;99634.25;;;13.50;49.29
44148;BME280;29810;55.848;37.368;2022-09-03T15:57:00;99642.00;;;13.31;50.03
44148;BME280;29810;55.848;37.368;2022-09-03T16:00:25;99639.78;;;12.99;50.88
44148;BME280;29810;55.848;37.368;2022-09-03T16:07:13;99634.41;;;12.58;52.21
44148;BME280;29810;55.848;37.368;2022-09-03T16:10:19;99634.47;;;12.56;51.67
44148;BME280;29810;55.848;37.368;2022-09-03T16:19:49;99644.59;;;12.18;54.03
44148;BME280;29810;55.848;37.368;2022-09-03T16:23:00;99646.41;;;12.16;54.38
44148;BME280;29810;55.848;37.368;2022-09-03T16:26:30;99648.34;;;12.11;54.26
44148;BME280;29810;55.848;37.368;2022-09-03T16:29:36;99641.41;;;12.10;54.64
44148;BME280;29810;55.848;37.368;2022-09-03T16:32:53;99643.44;;;12.02;54.31
44148;BME280;29810;55.848;37.368;2022-09-03T16:36:31;99647.59;;;12.07;54.77
44148;BME280;29810;55.848;37.368;2022-09-03T16:46:48;99648.81;;;12.46;54.04
44148;BME280;29810;55.848;37.368;2022-09-03T16:50:10;99651.19;;;12.52;53.55
44148;BME280;29810;55.848;37.368;2022-09-03T16:56:57;99667.28;;;12.65;53.63
44148;BME280;29810;55.848;37.368;2022-09-03T17:00:09;99678.41;;;12.70;53.02
44148;BME280;29810;55.848;37.368;2022-09-03T17:03:37;99680.16;;;12.70;52.71
44148;BME280;29810;55.848;37.368;2022-09-03T17:10:35;99696.28;;;12.59;54.76
44148;BME280;29810;55.848;37.368;2022-09-03T17:24:04;99673.91;;;11.76;60.64
44148;BME280;29810;55.848;37.368;2022-09-03T17:50:52;99667.19;;;11.96;63.09
44148;BME280;29810;55.848;37.368;2022-09-03T17:57:42;99669.88;;;11.92;62.74
44148;BME280;29810;55.848;37.368;2022-09-03T18:04:38;99675.09;;;11.92;63.06
44148;BME280;29810;55.848;37.368;2022-09-03T18:07:49;99673.34;;;11.93;62.73
44148;BME280;29810;55.848;37.368;2022-09-03T18:17:51;99673.03;;;11.77;62.75
44148;BME280;29810;55.848;37.368;2022-09-03T18:21:00;99668.06;;;11.69;62.73
44148;BME280;29810;55.848;37.368;2022-09-03T18:24:42;99671.03;;;11.58;62.89
44148;BME280;29810;55.848;37.368;2022-09-03T18:28:06;99669.53;;;11.51;63.83
44148;BME280;29810;55.848;37.368;2022-09-03T18:31:29;99674.41;;;11.35;63.45
44148;BME280;29810;55.848;37.368;2022-09-03T18:34:49;99675.78;;;11.20;65.03
44148;BME280;29810;55.848;37.368;2022-09-03T18:38:10;99678.03;;;11.03;66.56
44148;BME280;29810;55.848;37.368;2022-09-03T18:48:48;99657.44;;;10.67;69.10
44148;BME280;29810;55.848;37.368;2022-09-03T18:52:26;99649.69;;;10.64;71.00
44148;BME280;29810;55.848;37.368;2022-09-03T18:56:07;99656.78;;;10.60;71.60
44148;BME280;29810;55.848;37.368;2022-09-03T19:07:01;99669.81;;;10.60;72.46
44148;BME280;29810;55.848;37.368;2022-09-03T19:10:27;99668.75;;;10.66;72.79
44148;BME280;29810;55.848;37.368;2022-09-03T19:13:54;99665.09;;;10.71;71.80
44148;BME280;29810;55.848;37.368;2022-09-03T19:17:21;99653.81;;;10.71;71.45
44148;BME280;29810;55.848;37.368;2022-09-03T19:24:25;99659.47;;;11.14;70.28
44148;BME280;29810;55.848;37.368;2022-09-03T19:31:44;99663.63;;;11.19;69.10
44148;BME280;29810;55.848;37.368;2022-09-03T19:35:16;99662.72;;;11.20;68.98
44148;BME280;29810;55.848;37.368;2022-09-03T19:38:56;99666.19;;;11.21;69.06
44148;BME280;29810;55.848;37.368;2022-09-03T19:42:38;99667.94;;;11.20;69.14
44148;BME280;29810;55.848;37.368;2022-09-03T19:50:21;99654.53;;;11.31;68.18
44148;BME280;29810;55.848;37.368;2022-09-03T19:53:44;99659.63;;;11.36;66.84
44148;BME280;29810;55.848;37.368;2022-09-03T19:57:07;99653.62;;;11.32;66.02
44148;BME280;29810;55.848;37.368;2022-09-03T20:00:30;99659.81;;;11.30;65.82
44148;BME280;29810;55.848;37.368;2022-09-03T20:03:51;99648.63;;;11.26;65.35
44148;BME280;29810;55.848;37.368;2022-09-03T20:07:13;99641.13;;;11.15;65.23
44148;BME280;29810;55.848;37.368;2022-09-03T20:10:34;99656.75;;;11.17;65.17
44148;BME280;29810;55.848;37.368;2022-09-03T20:13:38;99652.72;;;11.06;65.26
44148;BME280;29810;55.848;37.368;2022-09-03T20:20:40;99663.34;;;11.00;66.15
44148;BME280;29810;55.848;37.368;2022-09-03T20:27:26;99659.84;;;11.01;65.67
44148;BME280;29810;55.848;37.368;2022-09-03T20:40:48;99653.25;;;10.89;66.49
44148;BME280;29810;55.848;37.368;2022-09-03T21:00:17;99650.13;;;10.18;67.61
44148;BME280;29810;55.848;37.368;2022-09-03T21:20:38;99669.34;;;9.81;70.75
44148;BME280;29810;55.848;37.368;2022-09-03T21:24:13;99675.66;;;9.72;71.09
44148;BME280;29810;55.848;37.368;2022-09-03T21:27:19;99670.47;;;9.71;72.26
44148;BME280;29810;55.848;37.368;2022-09-03T21:30:21;99676.84;;;9.60;71.73
44148;BME280;29810;55.848;37.368;2022-09-03T21:33:27;99667.56;;;9.49;72.07
44148;BME280;29810;55.848;37.368;2022-09-03T21:36:30;99669.25;;;9.51;72.97
44148;BME280;29810;55.848;37.368;2022-09-03T21:39:42;99683.97;;;9.52;73.29
44148;BME280;29810;55.848;37.368;2022-09-03T21:42:51;99675.38;;;9.50;73.53
44148;BME280;29810;55.848;37.368;2022-09-03T21:46:18;99678.91;;;9.46;73.31